Time;durP1;ratioP1;P1;durP2;ratioP2;P2;SDS_P1;SDS_P2;PMS_P1;PMS_P2;Temp;Humidity;BMP_temperature;BMP_pressure;BME280_temperature;BME280_humidity;BME280_pressure;Samples;Min_cycle;Max_cycle;Signal;HPM_P1;HPM_P2
2021/03/08 00:01:50;;;;;;;7.20;4.30;;;;;;;2.60;41.23;101868.72;7818384;29;20066;-68
2021/03/08 00:05:43;;;;;;;8.10;4.13;;;;;;;2.63;41.37;101877.31;7817204;29;20441;-66
2021/03/08 00:09:34;;;;;;;6.00;4.05;;;;;;;2.60;41.14;101874.78;7814515;29;20051;-71
2021/03/08 00:13:25;;;;;;;9.35;4.15;;;;;;;2.61;41.38;101870.47;7799343;29;20416;-68
2021/03/08 00:17:16;;;;;;;6.22;4.13;;;;;;;2.61;41.27;101860.94;7809123;29;20400;-66
2021/03/08 00:21:07;;;;;;;5.40;3.80;;;;;;;2.62;40.88;101862.63;7813069;29;20036;-70
2021/03/08 00:24:58;;;;;;;5.53;3.40;;;;;;;2.60;41.17;101860.94;7811679;29;20032;-67
2021/03/08 00:28:48;;;;;;;6.00;3.60;;;;;;;2.61;41.19;101865.25;7817134;29;20043;-66
2021/03/08 00:32:39;;;;;;;9.00;4.32;;;;;;;2.58;41.14;101857.53;7806483;29;20054;-68
2021/03/08 00:36:29;;;;;;;6.35;3.72;;;;;;;2.60;41.21;101858.34;7807454;29;20028;-67
2021/03/08 00:40:22;;;;;;;7.30;4.18;;;;;;;2.57;41.76;101854.09;7818458;29;20027;-71
2021/03/08 00:44:13;;;;;;;9.43;4.47;;;;;;;2.60;41.35;101859.22;7817878;29;20396;-67
2021/03/08 00:48:03;;;;;;;6.35;3.90;;;;;;;2.59;41.84;101851.44;7799670;29;20058;-69
2021/03/08 00:51:58;;;;;;;8.68;4.25;;;;;;;2.55;41.45;101848.06;7816936;29;20059;-66
2021/03/08 00:55:50;;;;;;;7.43;4.32;;;;;;;2.56;41.14;101842.00;7810753;29;20099;-67
2021/03/08 00:59:41;;;;;;;8.68;4.70;;;;;;;2.59;41.97;101851.44;7809697;29;20265;-66
2021/03/08 01:03:31;;;;;;;6.68;4.35;;;;;;;2.60;41.57;101867.00;7810525;29;20839;-67
2021/03/08 01:07:22;;;;;;;6.88;4.47;;;;;;;2.58;41.86;101845.41;7809968;29;20550;-69
2021/03/08 01:11:17;;;;;;;7.07;4.47;;;;;;;2.62;41.34;101862.63;7806878;29;20039;-66
2021/03/08 01:15:34;;;;;;;9.05;5.50;;;;;;;2.61;41.70;101853.16;7799194;29;20044;-67
2021/03/08 01:19:25;;;;;;;7.95;4.93;;;;;;;2.63;41.58;101850.50;7814692;29;20032;-69
2021/03/08 01:23:16;;;;;;;7.22;4.47;;;;;;;2.63;41.39;101858.28;7819030;29;20224;-67
2021/03/08 01:27:07;;;;;;;8.38;5.15;;;;;;;2.65;41.83;101852.22;7817478;29;20122;-69
2021/03/08 01:30:57;;;;;;;7.25;4.40;;;;;;;2.65;41.43;101847.03;7808949;29;20048;-66
2021/03/08 01:34:48;;;;;;;6.70;4.03;;;;;;;2.63;41.60;101840.13;7814821;29;20119;-67
2021/03/08 01:38:38;;;;;;;8.30;4.53;;;;;;;2.65;41.55;101835.78;7811089;29;20047;-71
2021/03/08 01:42:29;;;;;;;8.35;4.45;;;;;;;2.65;42.06;101821.09;7811692;29;20543;-67
2021/03/08 01:46:20;;;;;;;8.88;5.13;;;;;;;2.64;41.58;101827.16;7809310;29;20035;-69
2021/03/08 01:50:16;;;;;;;9.05;5.03;;;;;;;2.66;41.77;101829.72;7806515;29;20036;-67
2021/03/08 01:54:07;;;;;;;7.45;4.97;;;;;;;2.65;41.84;101834.06;7803571;29;20035;-66
2021/03/08 01:57:58;;;;;;;10.60;5.20;;;;;;;2.65;42.03;101831.47;7810949;29;20046;-67
2021/03/08 02:01:48;;;;;;;9.57;5.72;;;;;;;2.65;41.88;101828.88;7813213;29;20469;-66
2021/03/08 02:05:42;;;;;;;9.70;6.03;;;;;;;2.66;41.73;101821.94;7818451;29;20204;-69
2021/03/08 02:09:33;;;;;;;9.15;5.45;;;;;;;2.64;41.64;101819.38;7800632;29;20087;-67
2021/03/08 02:13:45;;;;;;;11.45;6.45;;;;;;;2.65;42.09;101821.09;7812442;29;20031;-70
2021/03/08 02:17:41;;;;;;;12.35;6.50;;;;;;;2.61;42.24;101814.25;7797548;29;20048;-67
2021/03/08 02:21:40;;;;;;;10.85;5.82;;;;;;;2.64;41.80;101813.31;7807850;29;20445;-67
2021/03/08 02:25:37;;;;;;;11.90;6.45;;;;;;;2.64;42.23;101816.78;7799863;29;20043;-67
2021/03/08 02:29:46;;;;;;;15.15;7.07;;;;;;;2.64;41.87;101816.78;7801387;29;20437;-68
2021/03/08 02:33:40;;;;;;;12.95;6.75;;;;;;;2.61;41.99;101806.47;7826105;28;20066;-71
2021/03/08 02:37:36;;;;;;;11.95;6.53;;;;;;;2.64;42.10;101816.78;7831265;29;20066;-67
2021/03/08 02:41:29;;;;;;;10.90;6.40;;;;;;;2.65;42.67;101807.25;7820914;29;20027;-69
2021/03/08 02:45:23;;;;;;;10.52;6.72;;;;;;;2.64;41.96;101798.63;7825765;29;20440;-67
2021/03/08 02:49:27;;;;;;;11.07;6.07;;;;;;;2.61;42.27;101803.00;7825339;29;20039;-67
2021/03/08 02:53:19;;;;;;;11.48;6.47;;;;;;;2.61;42.23;101790.91;7831266;29;20043;-71
2021/03/08 02:57:11;;;;;;;11.77;6.75;;;;;;;2.64;42.22;101797.75;7832136;29;20071;-70
2021/03/08 03:01:02;;;;;;;13.93;7.70;;;;;;;2.62;42.09;101792.59;7834436;29;20119;-67
2021/03/08 03:04:55;;;;;;;13.30;7.75;;;;;;;2.62;42.56;101797.78;7835627;28;20574;-68
2021/03/08 03:08:47;;;;;;;13.13;7.47;;;;;;;2.60;42.16;101793.50;7835585;28;20396;-68
2021/03/08 03:12:39;;;;;;;12.00;6.80;;;;;;;2.60;42.66;101802.16;7832344;29;20613;-69
2021/03/08 03:16:30;;;;;;;13.90;7.45;;;;;;;2.59;42.84;101795.25;7832022;29;20061;-66
2021/03/08 03:20:22;;;;;;;15.63;7.57;;;;;;;2.56;42.87;101791.84;7829885;29;20032;-70
2021/03/08 03:24:12;;;;;;;15.75;8.15;;;;;;;2.59;42.57;101805.63;7828974;29;20043;-67
2021/03/08 03:28:04;;;;;;;13.15;7.30;;;;;;;2.55;42.27;101792.72;7828580;29;20035;-70
2021/03/08 03:31:54;;;;;;;16.58;8.75;;;;;;;2.55;42.62;101796.19;7822660;29;20095;-67
2021/03/08 03:35:47;;;;;;;19.58;8.63;;;;;;;2.57;42.23;101794.44;7825061;29;20605;-66
2021/03/08 03:39:37;;;;;;;17.52;8.55;;;;;;;2.56;42.86;101795.31;7823424;29;20075;-68
2021/03/08 03:43:28;;;;;;;13.98;7.85;;;;;;;2.55;42.66;101796.19;7824032;29;20039;-72
2021/03/08 03:47:20;;;;;;;12.85;7.63;;;;;;;2.56;42.32;101799.63;7823460;29;20071;-65
2021/03/08 03:51:11;;;;;;;17.38;9.05;;;;;;;2.55;42.65;101795.31;7834082;29;20056;-65
2021/03/08 03:55:04;;;;;;;16.98;8.88;;;;;;;2.55;42.66;101796.19;7824223;29;20039;-65
2021/03/08 03:59:16;;;;;;;15.60;8.38;;;;;;;2.53;42.69;101797.97;7831157;29;20031;-66
2021/03/08 04:03:11;;;;;;;15.38;8.25;;;;;;;2.46;42.81;101790.28;7829832;28;20047;-68
2021/03/08 04:07:04;;;;;;;14.98;9.02;;;;;;;2.51;42.86;101801.44;7828125;29;20547;-65
2021/03/08 04:10:57;;;;;;;18.98;9.65;;;;;;;2.51;43.03;101801.44;7822586;29;20467;-66
2021/03/08 04:14:51;;;;;;;15.63;8.70;;;;;;;2.50;42.60;101808.38;7823397;29;20429;-65
2021/03/08 04:18:43;;;;;;;16.85;8.80;;;;;;;2.46;42.82;101805.84;7823070;29;20035;-64
2021/03/08 04:22:35;;;;;;;18.00;8.60;;;;;;;2.47;42.99;101808.44;7830232;29;20039;-64
2021/03/08 04:26:26;;;;;;;17.48;9.00;;;;;;;2.43;43.05;101804.19;7831285;29;20047;-65
2021/03/08 04:30:18;;;;;;;14.02;8.32;;;;;;;2.39;42.82;101807.72;7823251;28;20036;-66
2021/03/08 04:34:10;;;;;;;19.35;9.80;;;;;;;2.43;43.11;101819.75;7822953;29;20409;-66
2021/03/08 04:38:03;;;;;;;17.42;9.95;;;;;;;2.41;43.21;101819.75;7822572;29;20063;-64
2021/03/08 04:41:55;;;;;;;18.95;10.70;;;;;;;2.41;43.23;101824.94;7825286;29;20035;-66
2021/03/08 04:45:46;;;;;;;17.77;9.02;;;;;;;2.41;43.41;101829.31;7827011;29;20134;-68
2021/03/08 04:49:41;;;;;;;18.10;9.63;;;;;;;2.40;43.25;101828.44;7825490;29;20443;-66
2021/03/08 04:53:32;;;;;;;17.88;9.57;;;;;;;2.40;43.66;101837.97;7822072;29;20094;-66
2021/03/08 04:57:24;;;;;;;20.42;9.88;;;;;;;2.38;43.34;101827.59;7826403;29;20031;-66
2021/03/08 05:01:15;;;;;;;17.48;10.18;;;;;;;2.38;43.37;101829.34;7822100;29;20231;-68
2021/03/08 05:05:08;;;;;;;18.85;10.25;;;;;;;2.37;43.00;101827.66;7835666;29;20036;-68
2021/03/08 05:09:00;;;;;;;17.13;8.75;;;;;;;2.35;43.62;101826.81;7835142;29;20070;-66
2021/03/08 05:12:52;;;;;;;19.77;10.20;;;;;;;2.33;43.52;101823.34;7816068;29;20042;-65
2021/03/08 05:16:45;;;;;;;17.65;9.98;;;;;;;2.32;43.38;101826.84;7831478;29;20539;-65
2021/03/08 05:20:37;;;;;;;16.15;9.45;;;;;;;2.32;43.61;101829.44;7812974;29;20035;-66
2021/03/08 05:24:28;;;;;;;18.83;10.32;;;;;;;2.33;43.83;101834.59;7826928;29;20381;-65
2021/03/08 05:28:19;;;;;;;19.10;10.02;;;;;;;2.30;43.49;101832.06;7823310;28;20038;-66
2021/03/08 05:32:14;;;;;;;22.83;11.05;;;;;;;2.29;43.77;101829.47;7825008;28;20054;-66
2021/03/08 05:36:07;;;;;;;17.75;10.57;;;;;;;2.31;43.57;101835.50;7825181;29;20039;-65
2021/03/08 05:40:02;;;;;;;18.48;10.10;;;;;;;2.29;43.98;101832.06;7823782;29;20056;-64
2021/03/08 05:43:57;;;;;;;18.05;10.02;;;;;;;2.29;43.38;101834.66;7822514;29;20601;-66
2021/03/08 05:48:00;;;;;;;17.95;9.60;;;;;;;2.28;43.47;101845.94;7799279;29;20100;-68
2021/03/08 05:51:52;;;;;;;19.48;10.63;;;;;;;2.25;43.62;101840.78;7796436;29;20044;-66
2021/03/08 05:55:59;;;;;;;21.30;12.38;;;;;;;2.23;44.05;101843.41;7809611;29;20620;-68
2021/03/08 06:00:15;;;;;;;19.05;10.98;;;;;;;2.22;43.89;101846.03;7805190;29;20044;-69
2021/03/08 06:04:37;;;;;;;22.40;12.15;;;;;;;2.19;43.71;101841.75;7824741;29;20174;-67
2021/03/08 06:08:50;;;;;;;19.73;10.15;;;;;;;2.17;43.89;101842.66;7822179;29;20051;-64
2021/03/08 06:12:44;;;;;;;24.90;11.18;;;;;;;2.13;43.66;101835.78;7821539;29;20036;-64
2021/03/08 06:16:36;;;;;;;16.85;10.32;;;;;;;2.17;43.72;101845.22;7826226;29;20079;-64
2021/03/08 06:20:27;;;;;;;18.88;11.10;;;;;;;2.17;43.61;101845.22;7823318;29;20066;-65
2021/03/08 06:24:20;;;;;;;24.58;12.32;;;;;;;2.16;44.22;101854.78;7826878;29;20043;-67
2021/03/08 06:28:11;;;;;;;27.67;13.43;;;;;;;2.20;43.87;101848.66;7829399;29;20039;-67
2021/03/08 06:32:06;;;;;;;24.77;14.00;;;;;;;2.24;44.44;101858.09;7825230;29;20081;-67
2021/03/08 06:36:00;;;;;;;30.70;15.35;;;;;;;2.23;43.85;101858.97;7826049;29;20040;-65
2021/03/08 06:39:50;;;;;;;23.38;12.50;;;;;;;2.29;44.65;101870.97;7825841;29;20090;-66
2021/03/08 06:43:41;;;;;;;23.45;11.68;;;;;;;2.33;44.42;101872.63;7826275;29;20043;-65
2021/03/08 06:47:32;;;;;;;24.98;12.45;;;;;;;2.37;44.48;101880.34;7823862;29;20695;-64
2021/03/08 06:51:23;;;;;;;19.75;11.20;;;;;;;2.40;44.18;101880.31;7825446;29;20436;-65
2021/03/08 06:55:19;;;;;;;20.25;11.63;;;;;;;2.40;44.34;101880.31;7820606;29;20035;-65
2021/03/08 06:59:14;;;;;;;24.92;11.73;;;;;;;2.48;44.38;101893.16;7826354;29;20424;-65
2021/03/08 07:03:04;;;;;;;24.33;13.07;;;;;;;2.51;44.90;101893.09;7824573;29;20039;-65
2021/03/08 07:06:59;;;;;;;25.58;12.27;;;;;;;2.55;44.50;101894.75;7825026;29;20399;-65
2021/03/08 07:10:50;;;;;;;24.17;12.07;;;;;;;2.60;44.88;101892.09;7824968;29;20046;-65
2021/03/08 07:14:42;;;;;;;19.63;11.07;;;;;;;2.63;44.79;101894.63;7823915;29;20035;-65
2021/03/08 07:18:33;;;;;;;26.38;13.25;;;;;;;2.66;44.21;101892.81;7824539;29;20054;-68
2021/03/08 07:22:53;;;;;;;23.95;12.27;;;;;;;2.73;44.63;101896.19;7824923;29;20036;-67
2021/03/08 07:26:54;;;;;;;31.27;13.13;;;;;;;2.77;44.40;101903.03;7824009;29;20566;-69
2021/03/08 07:30:45;;;;;;;24.45;12.77;;;;;;;2.82;44.98;101901.22;7814244;29;20047;-65
2021/03/08 07:34:46;;;;;;;29.67;14.25;;;;;;;2.92;44.98;101902.75;7818860;29;20684;-67
2021/03/08 07:38:36;;;;;;;21.83;11.93;;;;;;;2.95;44.97;101901.88;7823764;29;20041;-65
2021/03/08 07:42:42;;;;;;;25.45;13.60;;;;;;;3.03;44.88;101903.44;7822403;29;20024;-66
2021/03/08 07:46:35;;;;;;;26.25;13.05;;;;;;;3.13;45.26;101911.88;7824958;29;20070;-66
2021/03/08 07:50:28;;;;;;;24.92;12.65;;;;;;;3.19;44.76;101919.56;7820836;29;20047;-65
2021/03/08 07:54:18;;;;;;;25.88;13.43;;;;;;;3.25;44.61;101919.44;7808504;29;20051;-65
2021/03/08 07:58:09;;;;;;;22.50;12.77;;;;;;;3.30;44.80;101928.03;7823673;29;20036;-66
2021/03/08 08:02:00;;;;;;;25.83;12.52;;;;;;;3.34;45.20;101927.09;7821406;29;20123;-65
2021/03/08 08:05:55;;;;;;;23.08;13.23;;;;;;;3.41;44.69;101927.81;7822005;29;20050;-65
2021/03/08 08:09:47;;;;;;;26.02;13.85;;;;;;;3.42;44.95;101916.56;7815795;29;20050;-64
2021/03/08 08:13:52;;;;;;;30.52;15.70;;;;;;;3.50;45.15;101922.44;7822643;29;20566;-65
2021/03/08 08:17:46;;;;;;;27.00;13.48;;;;;;;3.54;44.99;101924.09;7823736;28;20070;-64
2021/03/08 08:21:39;;;;;;;24.27;13.35;;;;;;;3.60;44.87;101926.59;7821199;29;20042;-65
2021/03/08 08:25:31;;;;;;;24.45;12.57;;;;;;;3.62;45.28;101925.66;7817329;29;20039;-66
2021/03/08 08:29:26;;;;;;;24.52;12.27;;;;;;;3.67;45.02;101925.56;7809829;29;20036;-65
2021/03/08 08:33:27;;;;;;;25.23;13.23;;;;;;;3.69;45.38;101914.28;7810332;29;20106;-67
2021/03/08 08:37:19;;;;;;;26.40;12.98;;;;;;;3.76;45.19;101921.03;7813234;29;20550;-64
2021/03/08 08:41:26;;;;;;;29.70;15.30;;;;;;;3.82;45.09;101921.81;7814880;28;20040;-65
2021/03/08 08:45:28;;;;;;;23.27;12.48;;;;;;;3.82;45.26;101910.50;7812984;29;20114;-65
2021/03/08 08:49:19;;;;;;;23.95;13.23;;;;;;;3.88;44.96;101913.84;7813216;29;20035;-65
2021/03/08 08:53:09;;;;;;;28.55;13.98;;;;;;;3.96;45.24;101901.53;7796319;29;20113;-68
2021/03/08 08:57:03;;;;;;;24.90;13.23;;;;;;;4.02;45.09;101920.47;7809972;29;20943;-68
2021/03/08 09:01:27;;;;;;;24.33;13.57;;;;;;;4.03;44.86;101908.31;7812453;29;20155;-65
2021/03/08 09:05:29;;;;;;;24.33;12.23;;;;;;;4.10;45.03;101910.75;7812972;29;20031;-65
2021/03/08 09:09:46;;;;;;;25.60;13.80;;;;;;;4.16;45.20;101913.22;7813750;29;20043;-69
2021/03/08 09:13:37;;;;;;;26.38;13.02;;;;;;;4.22;45.24;101902.69;7804867;29;20055;-66
2021/03/08 09:17:32;;;;;;;26.60;14.00;;;;;;;4.30;45.30;101907.69;7812418;29;20047;-68
2021/03/08 09:21:22;;;;;;;23.60;13.63;;;;;;;4.36;45.06;101901.50;7814268;29;20059;-65
2021/03/08 09:25:17;;;;;;;27.65;15.20;;;;;;;4.43;45.19;101908.25;7811881;29;20038;-65
2021/03/08 09:29:09;;;;;;;25.98;15.02;;;;;;;4.45;45.08;101907.31;7809696;29;20368;-65
2021/03/08 09:33:05;;;;;;;26.95;14.82;;;;;;;4.46;45.14;101903.84;7812010;29;20744;-65
2021/03/08 09:36:56;;;;;;;23.92;13.65;;;;;;;4.47;45.05;101907.28;7812108;29;20115;-66
2021/03/08 09:40:51;;;;;;;21.98;12.32;;;;;;;4.47;45.13;101908.16;7811247;29;20035;-66
2021/03/08 09:44:42;;;;;;;26.17;14.25;;;;;;;4.46;45.23;101903.84;7811037;29;20089;-66
2021/03/08 09:48:36;;;;;;;30.20;14.40;;;;;;;4.48;45.05;101909.00;7812135;29;20416;-68
2021/03/08 09:52:36;;;;;;;23.25;12.65;;;;;;;4.47;45.18;101912.50;7811870;29;20036;-68
2021/03/08 09:56:27;;;;;;;27.00;14.00;;;;;;;4.45;45.17;101907.31;7809546;29;20130;-66
2021/03/08 10:00:21;;;;;;;21.48;11.98;;;;;;;4.45;44.89;101904.72;7808781;29;20024;-65
2021/03/08 10:04:18;;;;;;;25.35;12.38;;;;;;;4.43;45.21;101903.91;7811483;29;20411;-68
2021/03/08 10:08:11;;;;;;;32.00;14.70;;;;;;;4.46;45.14;101906.44;7814260;29;20051;-65
2021/03/08 10:12:02;;;;;;;29.40;15.05;;;;;;;4.48;45.43;101906.41;7813771;29;20062;-70
2021/03/08 10:15:55;;;;;;;23.85;13.02;;;;;;;4.50;45.21;101910.66;7808546;29;20465;-66
2021/03/08 10:19:54;;;;;;;26.80;13.88;;;;;;;4.53;45.19;101914.94;7809059;29;20036;-69
2021/03/08 10:23:44;;;;;;;24.23;11.95;;;;;;;4.55;45.54;101921.84;7808912;29;20094;-68
2021/03/08 10:27:35;;;;;;;28.20;14.48;;;;;;;4.59;45.28;101918.25;7810399;29;20784;-70
2021/03/08 10:31:29;;;;;;;29.33;13.65;;;;;;;4.62;45.35;101922.53;7810784;29;20047;-65
2021/03/08 10:35:20;;;;;;;30.60;13.50;;;;;;;4.66;45.49;101913.75;7812729;29;20262;-67
2021/03/08 10:39:14;;;;;;;26.55;12.85;;;;;;;4.74;45.34;101917.00;7815958;29;20118;-66
2021/03/08 10:43:05;;;;;;;27.48;14.57;;;;;;;4.80;45.43;101913.41;7818597;29;20110;-66
2021/03/08 10:46:56;;;;;;;31.63;14.60;;;;;;;4.87;45.38;101910.59;7814752;28;20074;-67
2021/03/08 10:50:50;;;;;;;27.95;13.98;;;;;;;4.96;45.45;101914.72;7814773;29;20035;-68
2021/03/08 10:54:41;;;;;;;25.83;13.00;;;;;;;5.04;45.53;101908.41;7815644;29;20059;-68
2021/03/08 10:58:36;;;;;;;22.80;13.48;;;;;;;5.13;45.32;101907.31;7815382;29;20050;-69
2021/03/08 11:02:35;;;;;;;26.02;14.13;;;;;;;5.26;45.51;101913.94;7818542;29;20850;-66
2021/03/08 11:06:25;;;;;;;23.90;13.43;;;;;;;5.36;45.55;101897.13;7818570;29;20231;-66
2021/03/08 11:10:16;;;;;;;30.90;15.00;;;;;;;5.47;45.70;101902.06;7816694;29;20036;-67
2021/03/08 11:14:07;;;;;;;27.70;14.48;;;;;;;5.58;45.49;101903.44;7817995;28;20043;-66
2021/03/08 11:17:58;;;;;;;25.25;14.48;;;;;;;5.73;45.62;101909.09;7815523;29;20039;-67
2021/03/08 11:22:07;;;;;;;24.60;14.18;;;;;;;5.85;45.71;101913.97;7815912;29;20036;-65
2021/03/08 11:26:09;;;;;;;25.45;14.40;;;;;;;5.96;45.72;101914.50;7813239;29;20035;-68
2021/03/08 11:30:10;;;;;;;26.20;12.93;;;;;;;6.09;45.71;101913.22;7816492;29;20746;-65
2021/03/08 11:34:01;;;;;;;28.05;14.43;;;;;;;6.17;45.59;101905.16;7815946;29;21785;-66
2021/03/08 11:37:57;;;;;;;23.73;13.13;;;;;;;6.32;45.64;101917.72;7815319;29;20036;-66
2021/03/08 11:41:48;;;;;;;27.23;13.13;;;;;;;6.41;45.37;101915.69;7817110;29;20040;-65
2021/03/08 11:45:39;;;;;;;27.23;12.95;;;;;;;6.44;45.71;101912.97;7816590;28;20047;-66
2021/03/08 11:49:29;;;;;;;27.73;14.75;;;;;;;6.49;45.37;101911.06;7817048;29;20402;-65
2021/03/08 11:53:20;;;;;;;31.42;13.98;;;;;;;6.55;45.27;101904.78;7814546;29;20040;-67
2021/03/08 11:57:10;;;;;;;23.17;12.65;;;;;;;6.62;45.36;101903.69;7813925;28;20527;-67
2021/03/08 12:01:01;;;;;;;23.60;12.60;;;;;;;6.66;45.48;101899.22;7817789;28;20042;-69
2021/03/08 12:04:52;;;;;;;23.98;13.02;;;;;;;6.67;45.64;101890.47;7811875;29;20056;-66
2021/03/08 12:08:42;;;;;;;26.17;13.23;;;;;;;6.71;45.18;101886.84;7812558;29;20047;-66
2021/03/08 12:12:34;;;;;;;31.25;14.10;;;;;;;6.71;45.04;101882.50;7817176;29;20043;-66
2021/03/08 12:16:24;;;;;;;26.50;14.27;;;;;;;6.72;45.45;101870.31;7813481;29;20056;-66
2021/03/08 12:20:15;;;;;;;26.77;13.05;;;;;;;6.82;44.98;101872.56;7814504;29;20228;-69
2021/03/08 12:24:06;;;;;;;24.42;13.32;;;;;;;6.87;45.31;101870.63;7814997;29;20050;-67
2021/03/08 12:27:56;;;;;;;24.67;13.32;;;;;;;6.94;45.05;101876.50;7811566;29;20023;-68
2021/03/08 12:31:47;;;;;;;21.30;12.35;;;;;;;6.97;44.90;101869.41;7812680;29;20060;-67
2021/03/08 12:35:38;;;;;;;26.05;13.23;;;;;;;7.00;45.34;101865.84;7813320;29;20493;-66
2021/03/08 12:39:29;;;;;;;23.90;11.95;;;;;;;7.04;45.02;101859.59;7812918;29;21933;-68
2021/03/08 12:43:40;;;;;;;20.55;11.00;;;;;;;7.08;45.28;101855.97;7811726;29;20088;-66
2021/03/08 12:47:30;;;;;;;25.27;12.65;;;;;;;7.12;44.88;101852.34;7813052;29;20067;-66
2021/03/08 12:51:21;;;;;;;20.88;12.57;;;;;;;7.19;45.24;101843.34;7811386;29;20036;-68
2021/03/08 12:55:12;;;;;;;21.77;12.13;;;;;;;7.20;45.17;101837.22;7810848;29;20032;-66
2021/03/08 12:59:03;;;;;;;23.15;12.35;;;;;;;7.30;44.68;101845.59;7807061;29;20042;-67
2021/03/08 13:02:53;;;;;;;21.65;12.63;;;;;;;7.31;45.07;101837.66;7812999;28;20040;-67
2021/03/08 13:06:44;;;;;;;22.70;12.35;;;;;;;7.31;44.81;101828.97;7813085;28;20039;-66
2021/03/08 13:10:34;;;;;;;21.67;12.68;;;;;;;7.38;45.09;101827.84;7813624;29;20039;-67
2021/03/08 13:14:25;;;;;;;22.70;12.50;;;;;;;7.39;44.93;101825.16;7809815;29;20935;-66
2021/03/08 13:18:17;;;;;;;26.27;13.25;;;;;;;7.34;44.76;101816.63;7811845;29;20040;-66
2021/03/08 13:22:08;;;;;;;21.63;12.20;;;;;;;7.40;44.86;101820.78;7808091;29;20055;-68
2021/03/08 13:26:02;;;;;;;24.13;12.18;;;;;;;7.44;45.04;101810.16;7811581;29;20024;-69
2021/03/08 13:29:53;;;;;;;22.35;12.20;;;;;;;7.47;45.01;101807.44;7811351;28;20051;-66
2021/03/08 13:33:43;;;;;;;24.30;12.73;;;;;;;7.47;44.89;101796.13;7821244;28;20121;-68
2021/03/08 13:37:35;;;;;;;24.48;12.57;;;;;;;7.53;44.63;101800.25;7819089;29;20043;-65
2021/03/08 13:41:25;;;;;;;23.55;12.90;;;;;;;7.57;44.97;101800.09;7817759;29;20091;-66
2021/03/08 13:45:16;;;;;;;22.55;12.10;;;;;;;7.59;44.59;101794.81;7818211;28;20639;-65
2021/03/08 13:49:07;;;;;;;21.42;10.50;;;;;;;7.62;45.01;101794.69;7819012;29;20063;-67
2021/03/08 13:52:57;;;;;;;19.88;10.70;;;;;;;7.63;44.49;101796.41;7814262;29;20027;-68
2021/03/08 13:56:48;;;;;;;19.30;9.82;;;;;;;7.64;44.72;101793.69;7813941;29;20452;-66
2021/03/08 14:00:39;;;;;;;18.05;10.55;;;;;;;7.67;44.66;101795.38;7815741;28;20062;-66
2021/03/08 14:04:30;;;;;;;18.95;10.38;;;;;;;7.67;44.39;101800.59;7815730;28;20112;-66
2021/03/08 14:08:20;;;;;;;26.98;11.95;;;;;;;7.68;44.39;101792.66;7815351;29;20028;-66
2021/03/08 14:12:12;;;;;;;18.63;11.15;;;;;;;7.68;44.84;101794.44;7820935;29;20888;-66
2021/03/08 14:16:03;;;;;;;20.75;11.77;;;;;;;7.68;44.54;101787.44;7821379;28;20049;-65
2021/03/08 14:19:53;;;;;;;23.83;11.35;;;;;;;7.72;44.67;101780.31;7819171;29;20035;-67
2021/03/08 14:23:44;;;;;;;24.27;11.10;;;;;;;7.72;44.33;101783.78;7821863;29;20054;-67
2021/03/08 14:27:35;;;;;;;19.90;11.15;;;;;;;7.72;44.45;101780.31;7820061;29;20508;-67
2021/03/08 14:31:25;;;;;;;15.80;9.13;;;;;;;7.71;44.15;101773.41;7825654;28;20040;-67
2021/03/08 14:35:16;;;;;;;19.63;9.68;;;;;;;7.71;44.14;101776.03;7822031;29;20031;-66
2021/03/08 14:39:06;;;;;;;22.45;11.88;;;;;;;7.73;44.31;101772.41;7821359;29;20042;-69
2021/03/08 14:42:57;;;;;;;20.05;10.90;;;;;;;7.73;44.20;101771.56;7824607;29;20071;-66
2021/03/08 14:46:48;;;;;;;18.08;11.23;;;;;;;7.75;44.27;101768.00;7821997;28;20077;-66
2021/03/08 14:50:39;;;;;;;18.80;11.80;;;;;;;7.72;44.02;101759.41;7823137;29;20396;-68
2021/03/08 14:54:30;;;;;;;17.98;11.02;;;;;;;7.71;44.28;101769.00;7820910;28;20035;-67
2021/03/08 14:58:39;;;;;;;18.63;10.88;;;;;;;7.67;44.05;101770.03;7821093;29;20191;-67
2021/03/08 15:02:31;;;;;;;20.02;11.07;;;;;;;7.64;44.38;101762.31;7826680;28;21654;-66
2021/03/08 15:06:21;;;;;;;20.25;11.77;;;;;;;7.57;44.06;101753.03;7804754;29;20552;-68
2021/03/08 15:10:13;;;;;;;20.08;11.20;;;;;;;7.57;44.43;101747.78;7818086;29;20049;-68
2021/03/08 15:14:04;;;;;;;24.20;12.05;;;;;;;7.54;44.26;101744.47;7822978;29;20031;-66
2021/03/08 15:17:54;;;;;;;21.20;11.90;;;;;;;7.52;43.95;101741.03;7819735;28;20110;-67
2021/03/08 15:21:48;;;;;;;25.55;11.82;;;;;;;7.47;44.38;101734.22;7818661;29;20128;-66
2021/03/08 15:25:39;;;;;;;19.77;10.95;;;;;;;7.45;43.91;101728.22;7820276;29;20051;-66
2021/03/08 15:29:29;;;;;;;16.80;10.18;;;;;;;7.50;44.28;101728.03;7820630;29;20777;-69
2021/03/08 15:33:20;;;;;;;20.70;11.27;;;;;;;7.49;44.10;101727.19;7822806;29;20049;-66
2021/03/08 15:37:10;;;;;;;28.98;11.13;;;;;;;7.47;44.37;101729.00;7818869;29;20035;-67
2021/03/08 15:41:01;;;;;;;21.17;10.75;;;;;;;7.45;44.06;101725.59;7818836;29;20023;-68
2021/03/08 15:44:52;;;;;;;16.95;9.82;;;;;;;7.40;44.01;101722.31;7822359;29;20501;-69
2021/03/08 15:48:42;;;;;;;20.42;10.80;;;;;;;7.36;44.09;101722.50;7819647;29;20047;-65
2021/03/08 15:52:33;;;;;;;23.58;11.32;;;;;;;7.31;44.32;101727.91;7822976;29;20098;-67
2021/03/08 15:56:24;;;;;;;19.73;11.43;;;;;;;7.25;43.87;101724.69;7817301;29;20047;-67
2021/03/08 16:00:16;;;;;;;20.88;11.55;;;;;;;7.19;44.24;101717.91;7820728;28;20109;-67
2021/03/08 16:04:06;;;;;;;21.23;12.23;;;;;;;7.12;44.10;101718.22;7822207;28;20624;-69
2021/03/08 16:07:57;;;;;;;20.25;11.50;;;;;;;7.06;44.00;101721.91;7821416;29;20035;-66
2021/03/08 16:11:48;;;;;;;21.20;11.20;;;;;;;7.05;44.53;101728.03;7816613;29;20098;-68
2021/03/08 16:15:38;;;;;;;19.75;11.10;;;;;;;7.00;44.41;101724.75;7820579;29;20526;-66
2021/03/08 16:19:29;;;;;;;20.20;11.50;;;;;;;6.92;44.42;101713.75;7820471;29;20039;-68
2021/03/08 16:23:19;;;;;;;18.63;10.55;;;;;;;6.91;44.26;101714.66;7819130;28;20623;-65
2021/03/08 16:27:13;;;;;;;19.95;11.75;;;;;;;6.86;44.30;101714.81;7801965;29;20047;-66
2021/03/08 16:31:04;;;;;;;18.85;11.40;;;;;;;6.86;44.38;101719.19;7816397;29;20051;-67
2021/03/08 16:34:57;;;;;;;20.33;11.73;;;;;;;6.81;44.52;101721.97;7816650;28;20043;-66
2021/03/08 16:38:47;;;;;;;20.38;11.50;;;;;;;6.77;44.64;101715.16;7816791;29;20048;-66
2021/03/08 16:42:38;;;;;;;16.63;9.82;;;;;;;6.78;44.67;101716.88;7822772;28;20042;-66
2021/03/08 16:46:29;;;;;;;21.83;10.30;;;;;;;6.77;44.46;101709.09;7817875;28;20122;-68
2021/03/08 16:50:19;;;;;;;17.70;9.65;;;;;;;6.74;44.25;101709.19;7817040;29;20070;-67
2021/03/08 16:54:10;;;;;;;16.58;9.38;;;;;;;6.71;44.43;101710.16;7817687;29;20082;-66
2021/03/08 16:58:01;;;;;;;19.67;11.30;;;;;;;6.65;44.40;101707.75;7811663;29;20035;-66
2021/03/08 17:01:51;;;;;;;16.90;10.85;;;;;;;6.63;44.35;101712.19;7819428;28;20051;-68
2021/03/08 17:05:42;;;;;;;20.08;10.88;;;;;;;6.57;44.40;101707.16;7815653;29;20052;-66
2021/03/08 17:09:32;;;;;;;26.42;12.27;;;;;;;6.51;44.70;101712.63;7815414;29;20035;-66
2021/03/08 17:13:24;;;;;;;27.98;11.35;;;;;;;6.44;44.58;101717.19;7814504;29;21250;-68
2021/03/08 17:17:14;;;;;;;22.02;11.70;;;;;;;6.35;44.57;101727.09;7814754;29;20047;-66
2021/03/08 17:21:05;;;;;;;18.48;10.50;;;;;;;6.28;44.34;101723.88;7814892;29;20527;-67
2021/03/08 17:24:56;;;;;;;17.63;10.77;;;;;;;6.22;44.52;101734.53;7812449;29;20857;-65
2021/03/08 17:28:47;;;;;;;17.35;9.98;;;;;;;6.14;44.45;101728.69;7797734;29;20076;-66
2021/03/08 17:32:37;;;;;;;20.27;11.73;;;;;;;6.06;44.47;101726.34;7814957;29;20508;-67
2021/03/08 17:36:28;;;;;;;23.17;10.63;;;;;;;5.98;44.30;101723.13;7816614;29;20039;-66
2021/03/08 17:40:19;;;;;;;21.10;11.50;;;;;;;5.91;44.55;101726.00;7811863;29;20028;-69
2021/03/08 17:44:10;;;;;;;19.85;11.38;;;;;;;5.82;44.80;101718.47;7815454;29;20147;-64
2021/03/08 17:48:01;;;;;;;20.67;11.60;;;;;;;5.75;44.73;101722.19;7820729;29;20047;-65
2021/03/08 17:51:52;;;;;;;20.42;11.70;;;;;;;5.64;44.53;101715.56;7820723;29;20638;-67
2021/03/08 17:55:43;;;;;;;16.60;10.80;;;;;;;5.58;44.42;101718.38;7817374;29;20041;-66
2021/03/08 17:59:34;;;;;;;21.27;12.25;;;;;;;5.51;44.58;101719.50;7817683;29;20039;-66